Assateague Island Natl Seashore, Maryland
Current Conditions -  °F | °C
As of 6:17 AM on Wednesday 26 Nov 2014 (Local Time) from KOXB Reporting Station
Light Rain Light Rain  
Wind Chill:   Ceiling: 3300
Heat Index:   Visibility: 4mi
Dew Point:   Wind: 15mph
Humidity: 93%   Direction: 30°NNE
Pressure: 30.03"   Gusts: 25mph
Location:  38.12°N, 75.19°W
Report Text: KOXB 261117Z AUTO 03013G22KT 4SM -RA BR FEW009 BKN033 OVC047 07/06 A3003 RMK AO2 T00720061 TSNO PNO $
Loading
Personal Weather Stations






























Interactive Weather Map New forecast layout! Learn more

10-Day Weather Forecast

Advertisements
Track Severe Weather on mobile